createdAt,value
2018-03-08T00:00:46.521Z,5.93
2018-03-08T00:01:46.535Z,5.86
2018-03-08T00:02:46.295Z,5.91
2018-03-08T00:03:46.563Z,5.72
2018-03-08T00:04:46.573Z,5.86
2018-03-08T00:05:46.587Z,5.71
2018-03-08T00:06:46.100Z,5.89
2018-03-08T00:07:46.621Z,5.72
2018-03-08T00:08:46.688Z,5.73
2018-03-08T00:09:46.396Z,5.59
2018-03-08T00:10:46.418Z,5.64
2018-03-08T00:11:46.677Z,5.57
2018-03-08T00:12:46.693Z,5.66
2018-03-08T00:13:46.451Z,5.72
2018-03-08T00:14:46.723Z,5.69
2018-03-08T00:15:46.735Z,5.65
2018-03-08T00:16:46.503Z,5.69
2018-03-08T00:17:46.532Z,5.64
2018-03-08T00:18:46.528Z,5.64
2018-03-08T00:19:46.287Z,5.68
2018-03-08T00:20:46.812Z,5.65
2018-03-08T00:21:46.320Z,5.69
2018-03-08T00:22:46.841Z,5.5
2018-03-08T00:23:46.903Z,5.5
2018-03-08T00:24:46.869Z,5.62
2018-03-08T00:25:46.890Z,5.54
2018-03-08T00:26:46.646Z,5.65
2018-03-08T00:27:46.654Z,5.66
2018-03-08T00:28:46.672Z,5.68
2018-03-08T00:29:46.944Z,5.68
2018-03-08T00:30:46.955Z,5.65
2018-03-08T00:31:46.716Z,5.59
2018-03-08T00:32:46.480Z,5.51
2018-03-08T00:33:46.997Z,5.5
2018-03-08T00:34:47.019Z,5.64
2018-03-08T00:35:47.026Z,5.61
2018-03-08T00:36:47.036Z,5.59
2018-03-08T00:37:46.800Z,5.48
2018-03-08T00:38:47.118Z,5.56
2018-03-08T00:39:46.828Z,5.61
2018-03-08T00:40:46.849Z,5.68
2018-03-08T00:41:46.858Z,5.69
2018-03-08T00:42:46.869Z,5.79
2018-03-08T00:43:47.145Z,5.65
2018-03-08T00:44:47.152Z,5.61
2018-03-08T00:45:46.915Z,5.72
2018-03-08T00:46:46.949Z,5.62
2018-03-08T00:47:46.944Z,5.72
2018-03-08T00:48:46.958Z,5.86
2018-03-08T00:49:46.973Z,5.69
2018-03-08T00:50:46.992Z,5.75
2018-03-08T00:51:46.998Z,5.64
2018-03-08T00:52:47.015Z,5.73
2018-03-08T00:53:46.781Z,5.71
2018-03-08T00:54:47.300Z,5.71
2018-03-08T00:55:47.361Z,5.72
2018-03-08T00:56:47.073Z,5.73
2018-03-08T00:57:47.342Z,5.71
2018-03-08T00:58:47.104Z,5.89
2018-03-08T00:59:47.368Z,5.9
2018-03-08T01:00:47.388Z,5.89
2018-03-08T01:01:47.150Z,5.82
2018-03-08T01:02:47.162Z,5.98
2018-03-08T01:03:47.177Z,5.87
2018-03-08T01:04:47.445Z,5.97
2018-03-08T01:05:47.204Z,6.01
2018-03-08T01:06:47.476Z,6.12
2018-03-08T01:07:47.506Z,6.12
2018-03-08T01:08:47.500Z,6.12
2018-03-08T01:09:47.263Z,6.28
2018-03-08T01:10:47.604Z,6.22
2018-03-08T01:11:47.545Z,6.14
2018-03-08T01:12:47.308Z,6.11
2018-03-08T01:13:47.073Z,6.12
2018-03-08T01:14:47.387Z,6.05
2018-03-08T01:15:47.611Z,6.2
2018-03-08T01:16:47.619Z,6.22
2018-03-08T01:17:47.635Z,6.24
2018-03-08T01:18:47.143Z,6.28
2018-03-08T01:19:47.415Z,6.24
2018-03-08T01:20:47.781Z,6.26
2018-03-08T01:21:47.697Z,6.17
2018-03-08T01:22:47.203Z,6.2
2018-03-08T01:23:47.469Z,6.2
2018-03-08T01:24:47.931Z,6.26
2018-03-08T01:25:47.546Z,6.35
2018-03-08T01:26:47.769Z,6.36
2018-03-08T01:27:47.532Z,6.31
2018-03-08T01:28:47.796Z,6.26
2018-03-08T01:29:47.558Z,6.26
2018-03-08T01:30:47.828Z,6.27
2018-03-08T01:31:47.845Z,6.24
2018-03-08T01:32:47.859Z,6.26
2018-03-08T01:33:47.876Z,6.39
2018-03-08T01:34:47.640Z,6.41
2018-03-08T01:35:47.898Z,6.33
2018-03-08T01:36:47.665Z,6.22
2018-03-08T01:37:47.926Z,6.22
2018-03-08T01:38:47.946Z,6.24
2018-03-08T01:39:47.713Z,6.26
2018-03-08T01:40:48.024Z,6.24
2018-03-08T01:41:47.987Z,6.41
2018-03-08T01:42:48.001Z,6.24
2018-03-08T01:43:48.016Z,6.09
2018-03-08T01:44:47.781Z,6.3
2018-03-08T01:45:48.058Z,6.2
2018-03-08T01:46:48.086Z,6.26
2018-03-08T01:47:47.824Z,6.48
2018-03-08T01:48:47.854Z,6.44
2018-03-08T01:49:48.109Z,6.38
2018-03-08T01:50:48.131Z,6.33
2018-03-08T01:51:48.146Z,6.45
2018-03-08T01:52:47.894Z,6.64
2018-03-08T01:53:48.166Z,6.48
2018-03-08T01:54:47.927Z,6.44
2018-03-08T01:55:48.254Z,6.54
2018-03-08T01:56:48.220Z,6.66
2018-03-08T01:57:48.234Z,6.75
2018-03-08T01:58:47.736Z,6.79
2018-03-08T01:59:48.261Z,6.74
2018-03-08T02:00:48.024Z,6.72
2018-03-08T02:01:48.293Z,6.63
2018-03-08T02:02:48.308Z,6.52
2018-03-08T02:03:47.815Z,6.54
2018-03-08T02:04:48.332Z,6.56
2018-03-08T02:05:48.107Z,6.42
2018-03-08T02:06:48.131Z,6.36
2018-03-08T02:07:48.376Z,6.31
2018-03-08T02:08:48.185Z,6.31
2018-03-08T02:09:48.416Z,6.33
2018-03-08T02:10:48.492Z,6.46
2018-03-08T02:11:48.440Z,6.38
2018-03-08T02:12:48.204Z,6.27
2018-03-08T02:13:48.470Z,6.33
2018-03-08T02:14:48.490Z,6.24
2018-03-08T02:15:48.505Z,6.12
2018-03-08T02:16:48.269Z,6.24
2018-03-08T02:17:48.545Z,6.04
2018-03-08T02:18:48.295Z,6.28
2018-03-08T02:19:48.562Z,6.2
2018-03-08T02:20:48.322Z,6.09
2018-03-08T02:21:48.374Z,6.04
2018-03-08T02:22:48.355Z,6.12
2018-03-08T02:23:48.624Z,6.14
2018-03-08T02:24:48.640Z,6.02
2018-03-08T02:25:48.691Z,6.28
2018-03-08T02:26:48.411Z,6.26
2018-03-08T02:27:48.429Z,6.24
2018-03-08T02:28:48.442Z,6.08
2018-03-08T02:29:48.457Z,6.09
2018-03-08T02:30:48.731Z,6.31
2018-03-08T02:31:48.495Z,6.44
2018-03-08T02:32:48.511Z,6.28
2018-03-08T02:33:48.263Z,6.16
2018-03-08T02:34:48.530Z,6.12
2018-03-08T02:35:48.553Z,6.12
2018-03-08T02:36:48.829Z,6.08
2018-03-08T02:37:48.855Z,6.11
2018-03-08T02:38:48.842Z,6.05
2018-03-08T02:39:48.375Z,5.98
2018-03-08T02:40:48.930Z,5.93
2018-03-08T02:41:48.894Z,5.94
2018-03-08T02:42:48.910Z,6.05
2018-03-08T02:43:48.927Z,5.98
2018-03-08T02:44:48.679Z,6.09
2018-03-08T02:45:48.441Z,6.12
2018-03-08T02:46:48.966Z,6.08
2018-03-08T02:47:48.979Z,6.2
2018-03-08T02:48:48.990Z,6.09
2018-03-08T02:49:48.753Z,6.14
2018-03-08T02:50:49.129Z,6.26
2018-03-08T02:51:49.058Z,6.28
2018-03-08T02:52:49.068Z,6.2
2018-03-08T02:53:49.067Z,6.27
2018-03-08T02:54:48.828Z,6.04
2018-03-08T02:55:48.892Z,6.24
2018-03-08T02:56:49.122Z,6.24
2018-03-08T02:57:49.122Z,6.26
2018-03-08T02:58:49.144Z,6.36
2018-03-08T02:59:48.903Z,6.26
2018-03-08T03:00:48.916Z,6.11
2018-03-08T03:01:49.187Z,6.08
2018-03-08T03:02:48.692Z,6.11
2018-03-08T03:03:49.219Z,6.14
2018-03-08T03:04:48.978Z,6.2
2018-03-08T03:05:49.045Z,6.08
2018-03-08T03:06:49.271Z,6.33
2018-03-08T03:07:49.017Z,6.22
2018-03-08T03:08:49.289Z,6.31
2018-03-08T03:09:49.387Z,6.26
2018-03-08T03:10:49.115Z,6.26
2018-03-08T03:11:49.071Z,6.38
2018-03-08T03:12:49.346Z,6.35
2018-03-08T03:13:49.359Z,6.46
2018-03-08T03:14:49.380Z,6.41
2018-03-08T03:15:49.389Z,6.52
2018-03-08T03:16:49.423Z,6.52
2018-03-08T03:17:49.427Z,6.63
2018-03-08T03:18:49.202Z,6.63
2018-03-08T03:19:49.196Z,6.67
2018-03-08T03:20:49.214Z,6.74
2018-03-08T03:21:49.483Z,6.54
2018-03-08T03:22:49.242Z,6.49
2018-03-08T03:23:49.511Z,6.56
2018-03-08T03:24:49.281Z,6.64
2018-03-08T03:25:49.552Z,6.46
2018-03-08T03:26:49.562Z,6.49
2018-03-08T03:27:49.573Z,6.46
2018-03-08T03:28:49.636Z,6.35
2018-03-08T03:29:49.347Z,6.39
2018-03-08T03:30:49.364Z,6.46
2018-03-08T03:31:49.379Z,6.41
2018-03-08T03:32:49.399Z,6.57
2018-03-08T03:33:49.408Z,6.54
2018-03-08T03:34:49.425Z,6.45
2018-03-08T03:35:49.691Z,6.49
2018-03-08T03:36:49.721Z,6.45
2018-03-08T03:37:49.725Z,6.27
2018-03-08T03:38:49.738Z,6.38
2018-03-08T03:39:49.750Z,6.33
2018-03-08T03:40:49.518Z,6.33
2018-03-08T03:41:49.789Z,6.39
2018-03-08T03:42:49.801Z,6.48
2018-03-08T03:43:49.365Z,6.44
2018-03-08T03:44:49.832Z,6.57
2018-03-08T03:45:49.591Z,6.54
2018-03-08T03:46:49.863Z,6.44
2018-03-08T03:47:49.364Z,6.41
2018-03-08T03:48:49.892Z,6.46
2018-03-08T03:49:49.905Z,6.46
2018-03-08T03:50:49.915Z,6.39
2018-03-08T03:51:49.939Z,6.33
2018-03-08T03:52:49.702Z,6.36
2018-03-08T03:53:49.970Z,6.22
2018-03-08T03:54:49.980Z,6.22
2018-03-08T03:55:49.992Z,6.2
2018-03-08T03:56:50.010Z,6.27
2018-03-08T03:57:49.795Z,6.08
2018-03-08T03:58:49.835Z,6.09
2018-03-08T03:59:49.552Z,6.02
2018-03-08T04:00:49.822Z,5.94
2018-03-08T04:01:49.567Z,5.98
2018-03-08T04:02:49.839Z,6.12
2018-03-08T04:03:49.854Z,6.11
2018-03-08T04:04:50.125Z,5.94
2018-03-08T04:05:50.142Z,6.08
2018-03-08T04:06:49.902Z,5.99
2018-03-08T04:07:50.169Z,5.93
2018-03-08T04:08:49.938Z,6.02
2018-03-08T04:09:49.696Z,5.98
2018-03-08T04:10:49.967Z,6.05
2018-03-08T04:11:49.975Z,5.98
2018-03-08T04:12:49.993Z,6.04
2018-03-08T04:13:50.318Z,6.01
2018-03-08T04:14:50.022Z,5.99
2018-03-08T04:15:49.782Z,6.05
2018-03-08T04:16:50.056Z,6.05
2018-03-08T04:17:50.085Z,6.02
2018-03-08T04:18:50.081Z,6.01
2018-03-08T04:19:50.101Z,6.05
2018-03-08T04:20:50.110Z,6.16
2018-03-08T04:21:50.388Z,6.07
2018-03-08T04:22:50.390Z,6.09
2018-03-08T04:23:50.157Z,6.07
2018-03-08T04:24:50.178Z,6.04
2018-03-08T04:25:50.189Z,6.08
2018-03-08T04:26:50.205Z,5.97
2018-03-08T04:27:49.961Z,5.98
2018-03-08T04:28:50.332Z,5.99
2018-03-08T04:29:50.246Z,6.02
2018-03-08T04:30:50.254Z,5.9
2018-03-08T04:31:50.537Z,5.94
2018-03-08T04:32:50.299Z,5.9
2018-03-08T04:33:50.303Z,5.89
2018-03-08T04:34:50.063Z,5.9
2018-03-08T04:35:50.077Z,5.89
2018-03-08T04:36:50.100Z,5.75
2018-03-08T04:37:50.621Z,5.75
2018-03-08T04:38:50.643Z,5.83
2018-03-08T04:39:50.644Z,5.75
2018-03-08T04:40:50.157Z,5.64
2018-03-08T04:41:50.420Z,5.64
2018-03-08T04:42:50.435Z,5.65
2018-03-08T04:43:50.701Z,5.66
2018-03-08T04:44:50.462Z,5.76
2018-03-08T04:45:50.779Z,5.72
2018-03-08T04:46:50.504Z,5.75
2018-03-08T04:47:50.769Z,5.91
2018-03-08T04:48:50.777Z,5.86
2018-03-08T04:49:50.798Z,5.73
2018-03-08T04:50:50.830Z,5.76
2018-03-08T04:51:50.576Z,5.86
2018-03-08T04:52:50.895Z,5.99
2018-03-08T04:53:50.849Z,5.89
2018-03-08T04:54:50.868Z,6.05
2018-03-08T04:55:50.888Z,6.09
2018-03-08T04:56:50.888Z,6.01
2018-03-08T04:57:50.655Z,6.08
2018-03-08T04:58:50.918Z,6.09
2018-03-08T04:59:50.931Z,5.99
2018-03-08T05:00:50.963Z,6.07
2018-03-08T05:01:50.715Z,6.07
2018-03-08T05:02:50.982Z,6.16
2018-03-08T05:03:50.484Z,6.09
2018-03-08T05:04:50.760Z,6.12
2018-03-08T05:05:50.823Z,5.99
2018-03-08T05:06:50.797Z,5.99
2018-03-08T05:07:51.062Z,5.8
2018-03-08T05:08:50.815Z,5.86
2018-03-08T05:09:51.086Z,5.68
2018-03-08T05:10:51.101Z,5.72
2018-03-08T05:11:50.857Z,5.76
2018-03-08T05:12:50.875Z,5.68
2018-03-08T05:13:50.890Z,5.73
2018-03-08T05:14:50.902Z,5.66
2018-03-08T05:15:50.920Z,5.73
2018-03-08T05:16:51.237Z,5.72
2018-03-08T05:17:51.224Z,5.66
2018-03-08T05:18:50.963Z,5.69
2018-03-08T05:19:50.992Z,5.64
2018-03-08T05:20:51.040Z,5.57
2018-03-08T05:21:51.257Z,5.48
2018-03-08T05:22:51.267Z,5.57
2018-03-08T05:23:51.368Z,5.57
2018-03-08T05:24:50.791Z,5.56
2018-03-08T05:25:51.311Z,5.53
2018-03-08T05:26:50.822Z,5.51
2018-03-08T05:27:51.341Z,5.48
2018-03-08T05:28:51.363Z,5.47
2018-03-08T05:29:51.374Z,5.46
2018-03-08T05:30:51.458Z,5.44
2018-03-08T05:31:51.148Z,5.48
2018-03-08T05:32:51.166Z,5.47
2018-03-08T05:33:50.925Z,5.51
2018-03-08T05:34:51.191Z,5.5
2018-03-08T05:35:51.461Z,5.44
2018-03-08T05:36:51.231Z,5.44
2018-03-08T05:37:52.335Z,5.51
2018-03-08T05:38:51.250Z,5.5
2018-03-08T05:39:51.267Z,5.51
2018-03-08T05:40:51.276Z,5.66
2018-03-08T05:41:51.546Z,5.69
2018-03-08T05:42:51.314Z,5.68
2018-03-08T05:43:51.323Z,5.64
2018-03-08T05:44:51.591Z,5.68
2018-03-08T05:45:51.352Z,5.51
2018-03-08T05:46:51.642Z,5.65
2018-03-08T05:47:51.382Z,5.61
2018-03-08T05:48:51.663Z,5.71
2018-03-08T05:49:51.410Z,5.66
2018-03-08T05:50:51.682Z,5.79
2018-03-08T05:51:51.694Z,5.82
2018-03-08T05:52:51.705Z,5.75
2018-03-08T05:53:51.723Z,5.72
2018-03-08T05:54:51.478Z,5.73
2018-03-08T05:55:51.244Z,5.9
2018-03-08T05:56:51.511Z,5.87
2018-03-08T05:57:51.831Z,5.93
2018-03-08T05:58:51.800Z,5.72
2018-03-08T05:59:51.296Z,5.69
2018-03-08T06:00:51.627Z,5.61
2018-03-08T06:01:51.834Z,5.69
2018-03-08T06:02:51.849Z,5.83
2018-03-08T06:03:51.616Z,5.72
2018-03-08T06:04:51.933Z,5.72
2018-03-08T06:05:51.648Z,5.69
2018-03-08T06:06:51.658Z,5.66
2018-03-08T06:07:51.672Z,5.75
2018-03-08T06:08:51.681Z,5.72
2018-03-08T06:09:51.953Z,5.71
2018-03-08T06:10:51.968Z,5.91
2018-03-08T06:11:51.477Z,5.93
2018-03-08T06:12:51.745Z,5.94
2018-03-08T06:13:51.764Z,6.07
2018-03-08T06:14:51.819Z,6.08
2018-03-08T06:15:51.531Z,6.04
2018-03-08T06:16:51.798Z,6.14
2018-03-08T06:17:51.824Z,6.24
2018-03-08T06:18:52.090Z,6.12
2018-03-08T06:19:51.856Z,6.11
2018-03-08T06:20:52.110Z,6.17
2018-03-08T06:21:51.874Z,6.16
2018-03-08T06:22:51.633Z,6.14
2018-03-08T06:23:51.649Z,6.28
2018-03-08T06:24:52.169Z,6.31
2018-03-08T06:25:52.190Z,6.3
2018-03-08T06:26:52.202Z,6.28
2018-03-08T06:27:52.223Z,6.24
2018-03-08T06:28:51.980Z,6.33
2018-03-08T06:29:52.245Z,6.16
2018-03-08T06:30:52.259Z,6.05
2018-03-08T06:31:52.276Z,6.07
2018-03-08T06:32:52.302Z,5.89
2018-03-08T06:33:52.303Z,5.76
2018-03-08T06:34:52.323Z,5.8
2018-03-08T06:35:52.336Z,5.84
2018-03-08T06:36:52.354Z,5.75
2018-03-08T06:37:52.115Z,5.8
2018-03-08T06:38:52.126Z,5.94
2018-03-08T06:39:51.891Z,6.12
2018-03-08T06:40:52.411Z,5.97
2018-03-08T06:41:52.419Z,5.87
2018-03-08T06:42:52.436Z,5.91
2018-03-08T06:43:52.209Z,6.05
2018-03-08T06:44:52.234Z,6.05
2018-03-08T06:45:52.485Z,6.14
2018-03-08T06:46:52.507Z,6.05
2018-03-08T06:47:52.673Z,6.02
2018-03-08T06:48:52.275Z,5.98
2018-03-08T06:49:52.543Z,6.02
2018-03-08T06:50:52.564Z,6.05
2018-03-08T06:51:52.316Z,6.11
2018-03-08T06:52:52.701Z,6.24
2018-03-08T06:53:52.611Z,6.16
2018-03-08T06:54:52.613Z,6.16
2018-03-08T06:55:52.375Z,6.01
2018-03-08T06:56:52.662Z,6.11
2018-03-08T06:57:52.666Z,5.83
2018-03-08T06:58:52.668Z,6.08
2018-03-08T06:59:52.693Z,6.11
2018-03-08T07:00:52.708Z,6.09
2018-03-08T07:01:52.715Z,6.07
2018-03-08T07:02:52.815Z,6.2
2018-03-08T07:03:52.493Z,6.08
2018-03-08T07:04:52.528Z,6.16
2018-03-08T07:05:52.810Z,6.12
2018-03-08T07:06:52.844Z,6.22
2018-03-08T07:07:52.553Z,6.17
2018-03-08T07:08:52.819Z,6.07
2018-03-08T07:09:52.648Z,6.09
2018-03-08T07:10:52.850Z,6.22
2018-03-08T07:11:52.874Z,6.24
2018-03-08T07:12:52.631Z,6.27
2018-03-08T07:13:52.901Z,6.14
2018-03-08T07:14:52.913Z,6.28
2018-03-08T07:15:53.087Z,6.39
2018-03-08T07:16:52.941Z,6.28
2018-03-08T07:17:52.954Z,6.31
2018-03-08T07:18:52.718Z,6.36
2018-03-08T07:19:52.991Z,6.44
2018-03-08T07:20:52.751Z,6.41
2018-03-08T07:21:53.016Z,6.36
2018-03-08T07:22:53.029Z,6.49
2018-03-08T07:23:52.790Z,6.54
2018-03-08T07:24:53.062Z,6.49
2018-03-08T07:25:53.079Z,6.41
2018-03-08T07:26:53.097Z,6.36
2018-03-08T07:27:53.108Z,6.31
2018-03-08T07:28:53.122Z,6.24
2018-03-08T07:29:52.628Z,6.35
2018-03-08T07:30:52.897Z,6.26
2018-03-08T07:31:53.163Z,6.24
2018-03-08T07:32:53.195Z,6.38
2018-03-08T07:33:52.687Z,6.51
2018-03-08T07:34:52.954Z,6.28
2018-03-08T07:35:52.971Z,6.39
2018-03-08T07:36:52.735Z,6.57
2018-03-08T07:37:53.013Z,6.54
2018-03-08T07:38:53.018Z,6.57
2018-03-08T07:39:53.038Z,6.56
2018-03-08T07:40:52.800Z,6.54
2018-03-08T07:41:53.064Z,6.57
2018-03-08T07:42:52.821Z,6.77
2018-03-08T07:43:53.360Z,6.85
2018-03-08T07:44:53.105Z,6.77
2018-03-08T07:45:52.871Z,6.85
2018-03-08T07:46:52.886Z,7.1
2018-03-08T07:47:53.151Z,7.05
2018-03-08T07:48:53.159Z,7.05
2018-03-08T07:49:53.183Z,7.06
2018-03-08T07:50:53.446Z,7.06
2018-03-08T07:51:53.208Z,7
2018-03-08T07:52:53.228Z,7.02
2018-03-08T07:53:53.244Z,6.93
2018-03-08T07:54:53.259Z,7.07
2018-03-08T07:55:53.290Z,7.17
2018-03-08T07:56:53.290Z,7.23
2018-03-08T07:57:53.085Z,7.07
2018-03-08T07:58:53.069Z,7.14
2018-03-08T07:59:53.593Z,7.06
2018-03-08T08:00:53.102Z,7.11
2018-03-08T08:01:53.632Z,7.13
2018-03-08T08:02:53.385Z,7.14
2018-03-08T08:03:53.661Z,7.15
2018-03-08T08:04:53.164Z,7.14
2018-03-08T08:05:53.684Z,7.1
2018-03-08T08:06:53.699Z,7.11
2018-03-08T08:07:53.715Z,7.13
2018-03-08T08:08:53.726Z,7.24
2018-03-08T08:09:53.489Z,7.29
2018-03-08T08:10:53.510Z,7.4
2018-03-08T08:11:53.272Z,7.58
2018-03-08T08:12:53.805Z,7.53
2018-03-08T08:13:53.565Z,7.53
2018-03-08T08:14:53.830Z,7.38
2018-03-08T08:15:53.646Z,7.61
2018-03-08T08:16:53.609Z,7.56
2018-03-08T08:17:53.877Z,7.47
2018-03-08T08:18:53.637Z,7.66
2018-03-08T08:19:53.657Z,7.63
2018-03-08T08:20:53.678Z,7.7
2018-03-08T08:21:53.693Z,7.79
2018-03-08T08:22:53.755Z,7.8
2018-03-08T08:23:53.713Z,7.76
2018-03-08T08:24:53.994Z,7.88
2018-03-08T08:25:54.005Z,7.87
2018-03-08T08:26:53.765Z,8.06
2018-03-08T08:27:53.778Z,8.09
2018-03-08T08:28:54.060Z,7.95
2018-03-08T08:29:54.063Z,8.08
2018-03-08T08:30:54.085Z,7.97
2018-03-08T08:31:54.102Z,7.9
2018-03-08T08:32:54.116Z,8.06
2018-03-08T08:33:54.128Z,8.03
2018-03-08T08:34:54.154Z,8.08
2018-03-08T08:35:53.909Z,8.06
2018-03-08T08:36:53.932Z,8.06
2018-03-08T08:37:53.991Z,8.06
2018-03-08T08:38:53.957Z,7.91
2018-03-08T08:39:53.991Z,7.94
2018-03-08T08:40:54.235Z,8.06
2018-03-08T08:41:54.255Z,8.08
2018-03-08T08:42:54.267Z,8.16
2018-03-08T08:43:54.037Z,8.18
2018-03-08T08:44:54.057Z,8.28
2018-03-08T08:45:53.817Z,8.26
2018-03-08T08:46:54.349Z,8.24
2018-03-08T08:47:54.363Z,8.41
2018-03-08T08:48:54.392Z,8.38
2018-03-08T08:49:54.140Z,8.41
2018-03-08T08:50:54.409Z,8.28
2018-03-08T08:51:54.429Z,8.37
2018-03-08T08:52:54.491Z,8.6
2018-03-08T08:53:54.205Z,8.58
2018-03-08T08:54:54.470Z,8.46
2018-03-08T08:55:54.498Z,8.55
2018-03-08T08:56:54.498Z,8.56
2018-03-08T08:57:54.517Z,8.6
2018-03-08T08:58:54.281Z,8.69
2018-03-08T08:59:54.310Z,8.79
2018-03-08T09:00:54.312Z,8.87
2018-03-08T09:01:54.342Z,9.1
2018-03-08T09:02:54.352Z,9.16
2018-03-08T09:03:54.114Z,9.19
2018-03-08T09:04:54.383Z,9.21
2018-03-08T09:05:54.664Z,9.1
2018-03-08T09:06:54.421Z,8.91
2018-03-08T09:07:54.744Z,8.66
2018-03-08T09:08:54.715Z,8.58
2018-03-08T09:09:54.720Z,8.7
2018-03-08T09:10:54.736Z,8.84
2018-03-08T09:11:54.502Z,9.04
2018-03-08T09:12:54.771Z,9.22
2018-03-08T09:13:54.288Z,9.4
2018-03-08T09:14:54.564Z,9.39
2018-03-08T09:15:54.576Z,9.29
2018-03-08T09:16:54.840Z,9.37
2018-03-08T09:17:54.855Z,9.32
2018-03-08T09:18:54.936Z,9.29
2018-03-08T09:19:54.899Z,9.37
2018-03-08T09:20:54.916Z,9.58
2018-03-08T09:21:54.925Z,9.72
2018-03-08T09:22:54.946Z,9.73
2018-03-08T09:23:54.762Z,9.8
2018-03-08T09:24:54.990Z,9.74
2018-03-08T09:25:55.001Z,9.61
2018-03-08T09:26:54.764Z,9.82
2018-03-08T09:27:54.783Z,9.86
2018-03-08T09:28:55.045Z,9.79
2018-03-08T09:29:54.812Z,9.91
2018-03-08T09:30:54.827Z,9.8
2018-03-08T09:31:55.096Z,10.01
2018-03-08T09:32:54.863Z,10.09
2018-03-08T09:33:55.259Z,9.94
2018-03-08T09:34:54.893Z,10.02
2018-03-08T09:35:54.916Z,10.02
2018-03-08T09:36:54.934Z,10.09
2018-03-08T09:37:54.697Z,10.28
2018-03-08T09:38:55.267Z,10.28
2018-03-08T09:39:54.737Z,10.59
2018-03-08T09:40:55.007Z,10.63
2018-03-08T09:41:55.274Z,10.64
2018-03-08T09:42:55.319Z,10.4
2018-03-08T09:43:54.806Z,10.53
2018-03-08T09:44:55.342Z,10.44
2018-03-08T09:45:55.352Z,10.67
2018-03-08T09:46:55.375Z,10.56
2018-03-08T09:47:55.392Z,10.4
2018-03-08T09:48:55.153Z,10.42
2018-03-08T09:49:55.415Z,10.51
2018-03-08T09:50:55.181Z,10.61
2018-03-08T09:51:55.516Z,10.86
2018-03-08T09:52:55.473Z,10.84
2018-03-08T09:53:55.537Z,11.12
2018-03-08T09:54:55.256Z,11.12
2018-03-08T09:55:55.271Z,11.11
2018-03-08T09:56:55.542Z,11.02
2018-03-08T09:57:55.080Z,11.08
2018-03-08T09:58:55.692Z,10.9
2018-03-08T09:59:55.598Z,10.71
2018-03-08T10:00:55.362Z,10.87
2018-03-08T10:01:55.143Z,10.82
2018-03-08T10:02:55.420Z,10.96
2018-03-08T10:03:55.690Z,11.05
2018-03-08T10:04:55.197Z,11.27
2018-03-08T10:05:55.472Z,11.32
2018-03-08T10:06:55.745Z,11.51
2018-03-08T10:07:55.258Z,11.86
2018-03-08T10:08:55.577Z,12.02
2018-03-08T10:09:55.803Z,11.87
2018-03-08T10:10:55.567Z,11.69
2018-03-08T10:11:55.837Z,11.52
2018-03-08T10:12:55.686Z,11.59
2018-03-08T10:13:55.884Z,11.51
2018-03-08T10:14:55.901Z,11.62
2018-03-08T10:15:55.920Z,11.95
2018-03-08T10:16:55.942Z,12.31
2018-03-08T10:17:55.959Z,12.62
2018-03-08T10:18:56.026Z,12.76
2018-03-08T10:19:56.044Z,12.6
2018-03-08T10:20:56.018Z,12.09
2018-03-08T10:21:56.035Z,11.68
2018-03-08T10:22:55.807Z,11.65
2018-03-08T10:23:55.875Z,11.57
2018-03-08T10:24:55.848Z,11.63
2018-03-08T10:25:56.137Z,11.55
2018-03-08T10:26:56.136Z,11.55
2018-03-08T10:27:55.907Z,11.55
2018-03-08T10:28:56.213Z,11.66
2018-03-08T10:29:56.197Z,11.95
2018-03-08T10:30:56.218Z,11.95
2018-03-08T10:31:56.237Z,12.28
2018-03-08T10:32:56.255Z,12.21
2018-03-08T10:33:56.284Z,12.35
2018-03-08T10:34:56.299Z,12.4
2018-03-08T10:35:56.321Z,12.35
2018-03-08T10:36:56.092Z,12.36
2018-03-08T10:37:56.370Z,12.43
2018-03-08T10:38:56.430Z,12.32
2018-03-08T10:39:56.407Z,12.29
2018-03-08T10:40:56.177Z,12.07
2018-03-08T10:41:56.182Z,12.17
2018-03-08T10:42:56.215Z,12.27
2018-03-08T10:43:56.478Z,12.2
2018-03-08T10:44:56.247Z,11.94
2018-03-08T10:45:56.539Z,12.07
2018-03-08T10:46:56.544Z,12.22
2018-03-08T10:47:56.313Z,12.28
2018-03-08T10:49:04.942Z,11.83
2018-03-08T10:49:56.608Z,11.7
2018-03-08T10:50:56.114Z,11.69
2018-03-08T10:51:56.636Z,11.52
2018-03-08T10:52:56.153Z,11.29
2018-03-08T10:53:56.730Z,11.4
2018-03-08T10:54:56.710Z,11.22
2018-03-08T10:55:56.720Z,11.23
2018-03-08T10:56:56.489Z,11.29
2018-03-08T10:57:56.511Z,11.26
2018-03-08T10:58:56.775Z,11.29
2018-03-08T10:59:56.801Z,11.23
2018-03-08T11:00:56.821Z,11.08
2018-03-08T11:01:56.841Z,11.08
2018-03-08T11:02:56.867Z,11.18
2018-03-08T11:03:56.881Z,11.32
2018-03-08T11:04:56.900Z,11.22
2018-03-08T11:05:56.663Z,11.15
2018-03-08T11:06:56.938Z,11.36
2018-03-08T11:07:56.956Z,11.35
2018-03-08T11:08:57.046Z,11.33
2018-03-08T11:09:56.994Z,11.4
2018-03-08T11:10:57.023Z,11.37
2018-03-08T11:11:57.035Z,11.55
2018-03-08T11:12:57.055Z,11.78
2018-03-08T11:13:57.072Z,11.97
2018-03-08T11:14:57.092Z,12.13
2018-03-08T11:15:56.866Z,12.25
2018-03-08T11:16:57.132Z,12.35
2018-03-08T11:17:57.155Z,12.39
2018-03-08T11:18:57.177Z,12.2
2018-03-08T11:19:56.940Z,12.58
2018-03-08T11:20:56.975Z,12.67
2018-03-08T11:21:56.981Z,12.78
2018-03-08T11:22:57.002Z,12.79
2018-03-08T11:23:57.336Z,12.65
2018-03-08T11:24:57.047Z,13.09
2018-03-08T11:25:57.063Z,13.47
2018-03-08T11:26:57.339Z,13.7
2018-03-08T11:27:56.855Z,13.68
2018-03-08T11:28:57.389Z,13.86
2018-03-08T11:29:57.409Z,14.2
2018-03-08T11:30:57.428Z,14.5
2018-03-08T11:31:57.203Z,14.58
2018-03-08T11:32:57.476Z,14.77
2018-03-08T11:33:57.500Z,14.94
2018-03-08T11:34:57.524Z,14.84
2018-03-08T11:35:57.553Z,15.03
2018-03-08T11:36:57.573Z,14.85
2018-03-08T11:37:57.102Z,14.78
2018-03-08T11:38:57.673Z,14.97
2018-03-08T11:39:57.406Z,15.52
2018-03-08T11:40:57.676Z,16.09
2018-03-08T11:41:57.448Z,16.71
2018-03-08T11:42:57.756Z,17.02
2018-03-08T11:43:57.752Z,17.23
2018-03-08T11:44:58.541Z,17.67
2018-03-08T11:45:57.804Z,17.72
2018-03-08T11:46:57.581Z,18.43
2018-03-08T11:47:57.868Z,18.78
2018-03-08T11:48:57.891Z,18.71
2018-03-08T11:49:59.053Z,18.74
2018-03-08T11:50:57.944Z,18.28
2018-03-08T11:51:57.973Z,17.74
2018-03-08T11:52:58.000Z,17.36
2018-03-08T11:53:59.888Z,16.66
2018-03-08T11:54:58.321Z,16.46
2018-03-08T11:55:58.088Z,16.32
2018-03-08T11:56:58.113Z,16.36
2018-03-08T11:57:58.148Z,17.11
2018-03-08T11:58:58.168Z,17.26
2018-03-08T11:59:58.201Z,17.41
2018-03-08T12:00:57.976Z,17.48
2018-03-08T12:01:58.269Z,17.48
2018-03-08T12:02:58.032Z,17.83
2018-03-08T12:03:58.309Z,18.8
2018-03-08T12:04:58.345Z,19.45
2018-03-08T12:05:58.501Z,19.84
2018-03-08T12:06:57.891Z,20.06
2018-03-08T12:07:58.177Z,20.29
2018-03-08T12:08:58.522Z,20.43
2018-03-08T12:09:58.527Z,20.26
2018-03-08T12:10:58.522Z,20.24
2018-03-08T12:11:58.673Z,20.56
2018-03-08T12:12:58.581Z,20.93
2018-03-08T12:13:58.360Z,21.05
2018-03-08T12:14:58.387Z,21.07
2018-03-08T12:15:58.423Z,21.66
2018-03-08T12:16:58.640Z,21.51
2018-03-08T12:17:58.606Z,21.66
2018-03-08T12:18:58.769Z,21.98
2018-03-08T12:19:58.795Z,21.82
2018-03-08T12:20:58.830Z,22.15
2018-03-08T12:21:58.606Z,21.7
2018-03-08T12:22:58.642Z,21.89
2018-03-08T12:23:58.922Z,22.55
2018-03-08T12:24:58.492Z,22.85
2018-03-08T12:25:58.474Z,22.26
2018-03-08T12:26:58.758Z,22.44
2018-03-08T12:27:59.055Z,22.62
2018-03-08T12:28:58.823Z,22.87
2018-03-08T12:29:59.109Z,23.03
2018-03-08T12:30:59.142Z,22.75
2018-03-08T12:31:59.185Z,22
2018-03-08T12:32:59.233Z,22.02
2018-03-08T12:33:58.734Z,21.95
2018-03-08T12:34:59.276Z,21.79
2018-03-08T12:35:59.051Z,22.6
2018-03-08T12:36:59.347Z,23.48
2018-03-08T12:37:59.363Z,24.14
2018-03-08T12:38:59.142Z,24.38
2018-03-08T12:39:59.481Z,24.14
2018-03-08T12:40:59.202Z,24.14
2018-03-08T12:41:59.689Z,24.14
2018-03-08T12:42:59.518Z,24.14
2018-03-08T12:43:59.552Z,23.74
2018-03-08T12:44:59.584Z,23.78
2018-03-08T12:45:59.363Z,23.71
2018-03-08T12:46:59.393Z,23.93
2018-03-08T12:47:59.171Z,23.87
2018-03-08T12:48:59.456Z,23.87
2018-03-08T12:49:59.489Z,23.54
2018-03-08T12:50:59.773Z,23.92
2018-03-08T12:51:59.805Z,24.05
2018-03-08T12:52:59.587Z,23.68
2018-03-08T12:53:59.862Z,23.27
2018-03-08T12:54:59.951Z,23.27
2018-03-08T12:55:59.956Z,23.06
2018-03-08T12:56:59.443Z,22.72
2018-03-08T12:58:00.009Z,22.22
2018-03-08T12:58:59.766Z,22.28
2018-03-08T12:59:59.810Z,22.14
2018-03-08T13:01:00.105Z,21.95
2018-03-08T13:02:00.109Z,20.8
2018-03-08T13:03:00.142Z,19.82
2018-03-08T13:04:00.165Z,19.14
2018-03-08T13:04:59.940Z,19.21
2018-03-08T13:06:00.229Z,18.59
2018-03-08T13:07:00.251Z,18.9
2018-03-08T13:08:00.025Z,18.98
2018-03-08T13:09:00.323Z,18.78
2018-03-08T13:10:00.132Z,18.6
2018-03-08T13:10:59.856Z,18.35
2018-03-08T13:12:00.133Z,18.13
2018-03-08T13:13:00.165Z,17.9
2018-03-08T13:14:00.448Z,18.37